Аэропорт: Одесса. Одесса

ICAO: UKOO

METAR:
2019-12-12 10:30:00
UKOO 121030Z 07005MPS 040V100 9999 OVC005 03/03 Q1015 R34/290054 NOSIG
METAR:
2019-12-12 10:33:00
TAF AMD UKOO 121033Z 1210/1306 07006G14MPS 2100 BR OVC005 TX04/1212Z TN01/1304Z PROB40 TEMPO 1210/1212 0400 -DZ FG VV002 BECMG 1212/1213 SCT004 OVC007 PROB40 TEMPO 1216/1306 0400 FG VV002